Time;durP1;ratioP1;P1;durP2;ratioP2;P2;SDS_P1;SDS_P2;PMS_P1;PMS_P2;Temp;Humidity;BMP_temperature;BMP_pressure;BME280_temperature;BME280_humidity;BME280_pressure;Samples;Min_cycle;Max_cycle;Signal;HPM_P1;HPM_P2
2023/07/30 00:00:53;;;;;;;9.40;1.35;;;;;;;15.89;60.21;99288.34;5041822;28;20788;-56
2023/07/30 00:03:20;;;;;;;7.90;2.55;;;;;;;15.88;60.43;99294.44;5038550;28;20049;-52
2023/07/30 00:05:55;;;;;;;7.32;2.05;;;;;;;15.84;60.59;99295.47;5038437;28;20099;-52
2023/07/30 00:08:22;;;;;;;6.43;2.22;;;;;;;15.83;60.67;99299.00;5028381;28;20132;-55
2023/07/30 00:10:49;;;;;;;6.47;2.65;;;;;;;15.79;60.98;99292.19;5044352;28;20048;-54
2023/07/30 00:13:16;;;;;;;9.73;2.30;;;;;;;15.76;61.11;99292.28;5046034;28;20128;-57
2023/07/30 00:15:45;;;;;;;6.25;1.88;;;;;;;15.74;60.71;99283.69;5042858;28;20040;-53
2023/07/30 00:18:12;;;;;;;6.40;1.20;;;;;;;15.70;61.13;99287.31;5044617;28;20200;-55
2023/07/30 00:20:39;;;;;;;4.05;2.33;;;;;;;15.68;60.88;99284.75;5045164;28;20572;-52
2023/07/30 00:23:06;;;;;;;5.43;2.20;;;;;;;15.65;61.04;99280.50;5043337;28;20040;-54
2023/07/30 00:25:33;;;;;;;8.73;1.90;;;;;;;15.62;61.25;99280.59;5043011;28;20071;-58
2023/07/30 00:28:00;;;;;;;3.22;1.58;;;;;;;15.59;61.70;99275.50;5044958;28;20657;-56
2023/07/30 00:30:26;;;;;;;7.40;2.15;;;;;;;15.56;61.54;99275.59;5045898;28;20784;-54
2023/07/30 00:32:53;;;;;;;5.00;1.67;;;;;;;15.53;61.84;99276.56;5042255;28;20061;-53
2023/07/30 00:35:20;;;;;;;6.20;2.05;;;;;;;15.51;61.91;99282.75;5042533;28;20055;-50
2023/07/30 00:37:46;;;;;;;10.38;1.90;;;;;;;15.48;62.06;99282.84;5041116;28;20079;-55
2023/07/30 00:40:13;;;;;;;6.00;2.03;;;;;;;15.45;62.28;99280.34;5043315;28;20041;-55
2023/07/30 00:42:41;;;;;;;5.43;2.22;;;;;;;15.42;62.15;99274.34;5042651;28;20045;-53
2023/07/30 00:45:09;;;;;;;6.30;1.83;;;;;;;15.40;61.98;99281.34;5043822;28;20041;-53
2023/07/30 00:47:37;;;;;;;4.85;1.88;;;;;;;15.39;62.19;99284.88;5042441;28;20051;-52
2023/07/30 00:50:06;;;;;;;4.63;1.92;;;;;;;15.37;62.09;99281.47;5044831;28;20056;-55
2023/07/30 00:52:34;;;;;;;6.68;2.10;;;;;;;15.35;62.71;99282.41;5045815;28;20060;-54
2023/07/30 00:55:03;;;;;;;14.35;2.33;;;;;;;15.33;62.58;99279.84;5040647;28;20064;-51
2023/07/30 00:57:30;;;;;;;7.90;2.33;;;;;;;15.32;62.79;99280.78;5045192;28;20045;-54
2023/07/30 00:59:57;;;;;;;4.10;1.75;;;;;;;15.30;62.37;99285.19;5042487;28;20769;-57
2023/07/30 01:02:24;;;;;;;8.77;1.95;;;;;;;15.29;62.44;99288.69;5041732;28;20116;-56
2023/07/30 01:04:54;;;;;;;6.50;2.42;;;;;;;15.26;63.18;99281.84;5041407;28;20148;-57
2023/07/30 01:07:21;;;;;;;5.40;0.90;;;;;;;15.25;62.56;99287.97;5043852;28;20724;-56
2023/07/30 01:09:49;;;;;;;5.05;1.58;;;;;;;15.23;63.20;99296.75;5048324;28;20060;-50
2023/07/30 01:12:15;;;;;;;7.57;2.55;;;;;;;15.20;63.06;99289.88;5042399;28;21517;-57
2023/07/30 01:14:44;;;;;;;5.97;0.95;;;;;;;15.18;63.67;99283.88;5040301;28;20425;-56
2023/07/30 01:17:11;;;;;;;4.15;1.50;;;;;;;15.15;63.02;99287.44;5033288;28;20107;-54
2023/07/30 01:19:38;;;;;;;6.63;2.03;;;;;;;15.15;63.28;99287.44;5043743;28;20052;-56
2023/07/30 01:22:05;;;;;;;5.03;1.77;;;;;;;15.15;63.23;99287.44;5040065;28;20045;-57
2023/07/30 01:24:31;;;;;;;5.22;1.83;;;;;;;15.15;63.05;99292.66;5046208;28;20111;-56
2023/07/30 01:27:03;;;;;;;7.10;2.25;;;;;;;15.15;63.59;99286.56;5042369;28;20045;-55
2023/07/30 01:29:55;;;;;;;6.57;1.42;;;;;;;15.11;63.54;99280.63;5033690;28;20053;-56
2023/07/30 01:32:26;;;;;;;5.60;1.95;;;;;;;15.13;63.20;99283.19;5039949;28;20048;-52
2023/07/30 01:34:54;;;;;;;6.15;1.83;;;;;;;15.10;63.58;99284.09;5038583;28;20499;-54
2023/07/30 01:37:22;;;;;;;11.60;2.92;;;;;;;15.09;63.22;99281.56;5044476;28;20048;-57
2023/07/30 01:39:49;;;;;;;6.80;2.88;;;;;;;15.06;63.90;99282.50;5044577;28;20051;-53
2023/07/30 01:42:16;;;;;;;6.40;1.65;;;;;;;15.06;64.05;99282.50;5028235;28;20052;-58
2023/07/30 01:44:43;;;;;;;9.55;2.35;;;;;;;15.02;63.51;99275.69;5035280;28;20056;-57
2023/07/30 01:47:09;;;;;;;7.72;2.50;;;;;;;14.98;63.79;99276.69;5040842;28;20475;-50
2023/07/30 01:49:37;;;;;;;6.68;2.25;;;;;;;14.96;63.79;99271.53;5040726;28;20049;-55
2023/07/30 01:52:05;;;;;;;6.72;2.05;;;;;;;14.94;64.48;99277.72;5039104;28;20055;-57
2023/07/30 01:54:32;;;;;;;9.70;1.55;;;;;;;14.92;64.54;99279.53;5042150;28;20098;-56
2023/07/30 01:57:01;;;;;;;8.02;1.83;;;;;;;14.90;64.62;99282.19;5040570;28;20078;-54
2023/07/30 01:59:28;;;;;;;9.15;1.60;;;;;;;14.87;65.02;99272.72;5036601;28;20051;-51
2023/07/30 02:01:55;;;;;;;11.70;2.15;;;;;;;14.86;64.24;99270.16;5041192;28;20045;-54
2023/07/30 02:04:22;;;;;;;7.65;2.22;;;;;;;14.85;64.51;99279.72;5039224;28;20045;-56
2023/07/30 02:06:49;;;;;;;4.18;1.98;;;;;;;14.85;64.67;99284.06;5037291;28;20060;-57
2023/07/30 02:09:16;;;;;;;3.72;2.35;;;;;;;14.83;64.93;99286.72;5038881;28;20564;-58
2023/07/30 02:11:43;;;;;;;6.60;1.98;;;;;;;14.84;64.86;99293.66;5039409;28;20521;-52
2023/07/30 02:14:10;;;;;;;9.55;2.92;;;;;;;14.83;65.42;99296.31;5041832;28;20052;-57
2023/07/30 02:16:37;;;;;;;6.25;1.80;;;;;;;14.81;65.14;99293.75;5034214;28;20072;-52
2023/07/30 02:19:03;;;;;;;10.50;1.63;;;;;;;14.80;64.82;99296.41;5041836;28;20048;-55
2023/07/30 02:21:32;;;;;;;4.13;1.63;;;;;;;14.77;64.92;99297.38;5036585;28;20052;-58
2023/07/30 02:23:59;;;;;;;4.53;2.53;;;;;;;14.76;65.42;99295.66;5036103;28;20500;-52
2023/07/30 02:26:26;;;;;;;8.10;1.70;;;;;;;14.73;64.97;99283.53;5040559;28;20099;-51
2023/07/30 02:28:53;;;;;;;5.93;1.80;;;;;;;14.73;65.43;99296.56;5037459;28;20045;-57
2023/07/30 02:31:19;;;;;;;5.45;1.73;;;;;;;14.72;65.51;99291.41;5032161;28;20106;-56
2023/07/30 02:33:46;;;;;;;5.80;1.30;;;;;;;14.72;65.62;99291.41;5040793;28;20623;-55
2023/07/30 02:36:13;;;;;;;6.45;0.93;;;;;;;14.75;65.19;99291.31;5040915;28;20586;-52
2023/07/30 02:38:39;;;;;;;7.82;1.88;;;;;;;14.78;65.45;99296.47;5040848;28;20053;-53
2023/07/30 02:41:06;;;;;;;3.65;1.48;;;;;;;14.81;65.30;99293.75;5040207;28;20068;-55
2023/07/30 02:43:33;;;;;;;6.70;1.88;;;;;;;14.83;65.56;99291.94;5037979;28;20049;-52
2023/07/30 02:45:59;;;;;;;7.68;1.83;;;;;;;14.83;66.09;99296.31;5035355;28;20049;-54
2023/07/30 02:48:27;;;;;;;9.93;1.92;;;;;;;14.84;66.07;99287.59;5042087;28;20053;-58
2023/07/30 02:50:54;;;;;;;4.95;0.93;;;;;;;14.88;66.10;99292.66;5034018;28;21990;-52
2023/07/30 02:53:20;;;;;;;4.90;1.92;;;;;;;14.90;65.82;99296.06;5040991;28;20045;-55
2023/07/30 02:55:48;;;;;;;5.35;1.55;;;;;;;14.91;66.09;99294.31;5032830;28;20099;-55
2023/07/30 02:58:14;;;;;;;3.42;1.73;;;;;;;14.95;66.12;99295.06;5040527;28;20041;-55
2023/07/30 03:00:41;;;;;;;6.32;1.95;;;;;;;14.97;65.71;99298.47;5033419;28;20061;-56
2023/07/30 03:03:08;;;;;;;8.73;2.00;;;;;;;14.98;65.95;99306.25;5035123;28;20045;-54
2023/07/30 03:05:35;;;;;;;3.90;1.70;;;;;;;14.99;66.48;99301.88;5039833;28;20616;-54
2023/07/30 03:08:02;;;;;;;5.90;2.05;;;;;;;15.00;66.81;99295.78;5043696;28;20040;-54
2023/07/30 03:10:29;;;;;;;8.43;1.92;;;;;;;14.98;66.54;99294.97;5039752;28;20049;-55
2023/07/30 03:12:56;;;;;;;4.15;1.63;;;;;;;15.03;66.86;99293.91;5038679;28;20048;-54
2023/07/30 03:15:23;;;;;;;6.35;1.85;;;;;;;15.05;67.01;99283.41;5038758;28;20075;-56
2023/07/30 03:17:50;;;;;;;4.90;2.13;;;;;;;15.07;66.93;99285.97;5033862;28;20045;-57
2023/07/30 03:20:16;;;;;;;7.25;0.98;;;;;;;15.07;66.88;99289.44;5034831;28;20649;-56
2023/07/30 03:22:44;;;;;;;7.43;1.95;;;;;;;15.07;66.97;99284.25;5032316;28;20041;-52
2023/07/30 03:25:11;;;;;;;8.50;1.92;;;;;;;15.08;67.09;99288.53;5041212;28;20045;-57
2023/07/30 03:27:38;;;;;;;6.10;2.03;;;;;;;15.09;66.63;99286.75;5031301;28;20064;-56
2023/07/30 03:30:05;;;;;;;3.63;1.58;;;;;;;15.09;66.65;99287.63;5042749;28;20532;-55
2023/07/30 03:32:32;;;;;;;4.35;1.55;;;;;;;15.09;66.98;99298.06;5037987;28;20108;-56
2023/07/30 03:34:59;;;;;;;7.65;2.20;;;;;;;15.10;66.56;99291.94;5043070;28;20079;-56
2023/07/30 03:37:25;;;;;;;5.97;1.85;;;;;;;15.11;67.00;99296.28;5041604;28;20514;-54
2023/07/30 03:39:52;;;;;;;3.58;1.70;;;;;;;15.11;66.93;99296.28;5040208;28;20048;-54
2023/07/30 03:42:19;;;;;;;8.07;2.28;;;;;;;15.11;66.93;99291.06;5042377;28;20044;-52
2023/07/30 03:44:45;;;;;;;5.68;1.92;;;;;;;15.10;66.54;99293.72;5043010;28;20052;-56
2023/07/30 03:47:12;;;;;;;5.68;1.00;;;;;;;15.08;67.40;99300.72;5038495;28;20324;-53
2023/07/30 03:49:39;;;;;;;7.80;2.58;;;;;;;15.07;66.91;99297.28;5042673;28;20049;-51
2023/07/30 03:52:06;;;;;;;4.95;2.03;;;;;;;15.06;66.86;99300.75;5046304;28;20056;-53
2023/07/30 03:54:50;;;;;;;7.50;2.85;;;;;;;15.04;66.89;99297.38;5043144;28;20071;-55
2023/07/30 03:57:17;;;;;;;5.85;2.83;;;;;;;15.04;67.36;99305.19;5046558;28;20048;-51
2023/07/30 03:59:43;;;;;;;6.70;1.52;;;;;;;15.01;67.80;99305.28;5042187;28;20045;-56
2023/07/30 04:02:15;;;;;;;7.60;2.83;;;;;;;15.00;67.33;99303.59;5043112;28;20048;-57
2023/07/30 04:04:44;;;;;;;4.45;2.13;;;;;;;14.97;67.46;99299.34;5041337;28;20049;-55
2023/07/30 04:07:11;;;;;;;3.72;1.98;;;;;;;14.95;67.08;99305.47;5046956;28;20052;-54
2023/07/30 04:09:37;;;;;;;3.47;1.70;;;;;;;14.91;67.49;99299.53;5043003;28;20680;-56
2023/07/30 04:12:04;;;;;;;10.35;2.45;;;;;;;14.87;67.40;99293.56;5042663;28;20056;-58
2023/07/30 04:14:31;;;;;;;5.50;1.77;;;;;;;14.85;67.31;99287.53;5046467;28;20045;-50
2023/07/30 04:16:58;;;;;;;4.90;1.70;;;;;;;14.84;67.38;99283.25;5033818;28;20042;-56
2023/07/30 04:19:25;;;;;;;7.63;2.50;;;;;;;14.83;67.50;99285.91;5040464;28;20148;-55
2023/07/30 04:21:52;;;;;;;7.15;2.35;;;;;;;14.83;67.31;99291.94;5040366;28;20107;-56
2023/07/30 04:24:19;;;;;;;5.63;2.00;;;;;;;14.83;67.70;99286.72;5031434;28;20052;-53
2023/07/30 04:26:46;;;;;;;5.35;2.08;;;;;;;14.82;67.57;99292.84;5042673;28;20045;-55
2023/07/30 04:29:13;;;;;;;5.20;1.98;;;;;;;14.80;67.47;99281.66;5042440;28;20057;-56
2023/07/30 04:31:41;;;;;;;8.05;2.22;;;;;;;14.79;67.55;99290.34;5043879;28;20159;-56
2023/07/30 04:34:08;;;;;;;9.00;2.80;;;;;;;14.76;68.04;99300.84;5035718;28;20057;-58
2023/07/30 04:36:35;;;;;;;11.10;2.45;;;;;;;14.72;67.96;99305.31;5044850;28;20135;-51
2023/07/30 04:39:02;;;;;;;10.27;2.10;;;;;;;14.71;67.88;99305.34;5041658;28;20081;-52
2023/07/30 04:41:29;;;;;;;6.00;2.05;;;;;;;14.68;68.06;99297.63;5043377;28;20059;-54
2023/07/30 04:43:56;;;;;;;8.20;2.33;;;;;;;14.67;67.46;99311.56;5042116;28;20036;-54
2023/07/30 04:46:22;;;;;;;3.65;1.60;;;;;;;14.64;67.85;99300.34;5043416;28;20045;-55
2023/07/30 04:48:49;;;;;;;11.50;2.33;;;;;;;14.65;68.18;99303.78;5040062;28;20048;-50
2023/07/30 04:51:16;;;;;;;6.38;1.58;;;;;;;14.61;68.26;99303.03;5043469;28;20053;-56
2023/07/30 04:53:42;;;;;;;5.97;2.22;;;;;;;14.63;68.18;99300.41;5041956;28;20048;-58
2023/07/30 04:56:09;;;;;;;3.60;2.33;;;;;;;14.60;68.23;99301.34;5042091;28;20052;-56
2023/07/30 04:58:35;;;;;;;8.30;2.00;;;;;;;14.60;68.20;99306.56;5044402;28;20073;-55
2023/07/30 05:01:02;;;;;;;7.10;2.05;;;;;;;14.60;68.61;99301.34;5043359;28;20067;-55
2023/07/30 05:03:29;;;;;;;6.35;2.20;;;;;;;14.61;68.73;99303.03;5041379;28;20044;-55
2023/07/30 05:05:55;;;;;;;7.50;1.20;;;;;;;14.62;68.60;99304.75;5040159;28;20557;-54
2023/07/30 05:08:22;;;;;;;6.53;1.85;;;;;;;14.63;68.67;99319.47;5043587;28;20048;-50
2023/07/30 05:10:49;;;;;;;5.22;1.95;;;;;;;14.64;68.89;99326.41;5044561;28;20048;-56
2023/07/30 05:13:15;;;;;;;6.72;2.85;;;;;;;14.68;68.64;99323.69;5045306;28;20049;-51
2023/07/30 05:15:43;;;;;;;8.80;3.05;;;;;;;14.73;69.02;99324.41;5042866;28;20060;-51
2023/07/30 05:18:09;;;;;;;9.93;2.85;;;;;;;14.80;69.18;99322.50;5039998;28;20084;-51
2023/07/30 05:20:36;;;;;;;9.23;1.88;;;;;;;14.90;69.04;99327.34;5035862;28;20056;-56
2023/07/30 05:23:03;;;;;;;7.57;2.85;;;;;;;15.01;69.09;99323.53;5037498;28;20051;-54
2023/07/30 05:25:30;;;;;;;8.93;1.77;;;;;;;15.10;69.00;99319.78;5038561;28;21091;-56
2023/07/30 05:27:57;;;;;;;9.52;2.55;;;;;;;15.14;68.76;99317.00;5042386;28;20053;-53
2023/07/30 05:30:24;;;;;;;3.88;1.73;;;;;;;15.20;68.79;99326.38;5037911;28;20044;-56
2023/07/30 05:32:50;;;;;;;7.68;1.60;;;;;;;15.23;68.72;99325.44;5040432;28;20060;-54
2023/07/30 05:35:18;;;;;;;5.60;2.22;;;;;;;15.28;68.60;99323.53;5039834;28;20076;-50
2023/07/30 05:37:45;;;;;;;7.20;1.58;;;;;;;15.32;68.20;99334.69;5040937;28;20106;-53
2023/07/30 05:40:12;;;;;;;5.78;2.38;;;;;;;15.32;68.63;99335.56;5034527;28;20061;-51
2023/07/30 05:42:38;;;;;;;5.20;2.05;;;;;;;15.32;68.07;99335.56;5036351;28;20052;-52
2023/07/30 05:45:06;;;;;;;8.50;1.77;;;;;;;15.35;68.47;99330.25;5033987;28;20036;-54
2023/07/30 05:47:32;;;;;;;1.92;1.20;;;;;;;15.36;68.20;99334.56;5036447;28;20064;-51
2023/07/30 05:49:59;;;;;;;6.50;2.15;;;;;;;15.38;67.95;99326.69;5038741;28;20068;-56
2023/07/30 05:52:26;;;;;;;4.10;1.63;;;;;;;15.37;68.19;99335.41;5018076;28;20049;-52
2023/07/30 05:54:52;;;;;;;5.60;0.75;;;;;;;15.41;68.07;99340.47;5039468;28;20429;-55
2023/07/30 05:57:19;;;;;;;7.75;1.67;;;;;;;15.47;68.65;99338.56;5040868;28;20049;-56
2023/07/30 05:59:46;;;;;;;12.10;2.08;;;;;;;15.58;68.92;99331.22;5039037;28;20053;-55
2023/07/30 06:02:13;;;;;;;9.73;2.63;;;;;;;15.72;68.73;99329.84;5039794;28;20049;-57
2023/07/30 06:04:40;;;;;;;6.97;2.67;;;;;;;15.86;68.97;99325.00;5037340;28;20056;-55
2023/07/30 06:07:06;;;;;;;5.03;1.80;;;;;;;16.06;68.82;99323.44;5039961;28;20041;-58
2023/07/30 06:09:33;;;;;;;5.28;1.55;;;;;;;16.14;68.00;99336.22;5038750;28;20068;-56
2023/07/30 06:12:00;;;;;;;5.55;1.67;;;;;;;16.16;67.67;99337.88;5040895;28;20416;-53
2023/07/30 06:14:27;;;;;;;4.50;1.65;;;;;;;16.11;68.27;99342.41;5040675;28;20037;-56
2023/07/30 06:16:54;;;;;;;6.40;1.40;;;;;;;16.13;67.27;99343.22;5040512;28;20045;-59
2023/07/30 06:19:20;;;;;;;4.90;1.60;;;;;;;16.15;67.18;99357.03;5028893;28;20095;-57
2023/07/30 06:21:47;;;;;;;8.93;1.88;;;;;;;16.18;67.53;99356.94;5032088;28;20756;-52
2023/07/30 06:24:14;;;;;;;4.60;1.35;;;;;;;16.20;67.12;99354.28;5037036;28;20144;-55
2023/07/30 06:26:41;;;;;;;7.05;2.13;;;;;;;16.21;67.36;99368.19;5039362;28;20041;-55
2023/07/30 06:29:08;;;;;;;5.55;1.58;;;;;;;16.23;67.32;99364.63;5040707;28;20071;-55
2023/07/30 06:31:34;;;;;;;2.92;1.52;;;;;;;16.28;67.21;99362.66;5036793;28;20041;-52
2023/07/30 06:34:01;;;;;;;6.07;1.75;;;;;;;16.29;66.83;99363.53;5039881;28;20053;-54
2023/07/30 06:36:28;;;;;;;5.05;1.67;;;;;;;16.32;66.97;99368.66;5041189;28;20048;-51
2023/07/30 06:38:55;;;;;;;6.85;1.15;;;;;;;16.34;66.22;99371.22;5035785;28;20400;-54
2023/07/30 06:41:21;;;;;;;3.67;1.52;;;;;;;16.39;66.38;99370.13;5034001;28;21781;-53
2023/07/30 06:43:48;;;;;;;3.10;1.48;;;;;;;16.69;66.56;99376.84;5038471;28;20098;-51
2023/07/30 06:46:15;;;;;;;3.17;1.17;;;;;;;16.98;65.88;99379.22;5040170;28;20046;-53
2023/07/30 06:48:42;;;;;;;1.95;1.48;;;;;;;17.28;65.13;99385.00;5041289;28;20037;-54
2023/07/30 06:51:10;;;;;;;3.53;1.52;;;;;;;17.55;64.88;99382.13;5033116;28;20053;-52
2023/07/30 06:53:37;;;;;;;2.22;1.35;;;;;;;17.81;64.20;99387.16;5037200;28;20049;-54
2023/07/30 06:56:05;;;;;;;2.10;1.67;;;;;;;18.01;64.16;99388.06;5033725;28;20061;-52
2023/07/30 06:58:32;;;;;;;3.55;1.38;;;;;;;18.21;63.03;99395.91;5041947;28;20419;-50
2023/07/30 07:00:59;;;;;;;2.80;1.05;;;;;;;18.44;63.00;99390.53;5039374;28;20472;-52
2023/07/30 07:03:27;;;;;;;2.95;1.88;;;;;;;18.63;61.56;99386.16;5032200;28;20126;-54
2023/07/30 07:05:55;;;;;;;4.97;1.92;;;;;;;18.86;61.75;99397.31;5036920;28;20057;-51
2023/07/30 07:08:22;;;;;;;3.17;1.92;;;;;;;19.13;61.41;99388.22;5037903;28;20063;-52
2023/07/30 07:10:49;;;;;;;7.32;1.15;;;;;;;19.37;60.38;99391.41;5040383;28;20044;-56
2023/07/30 07:13:16;;;;;;;2.15;1.50;;;;;;;19.62;60.39;99399.81;5030369;28;20061;-52
2023/07/30 07:15:43;;;;;;;2.58;1.17;;;;;;;19.85;60.18;99400.38;5034425;28;20052;-52
2023/07/30 07:18:11;;;;;;;3.17;1.23;;;;;;;20.03;59.72;99403.91;5041714;28;20489;-54
2023/07/30 07:20:38;;;;;;;2.22;2.03;;;;;;;20.22;58.74;99390.59;5041810;28;20052;-49
2023/07/30 07:23:04;;;;;;;3.88;0.60;;;;;;;20.42;58.20;99399.19;5043883;28;20237;-55
2023/07/30 07:25:31;;;;;;;1.73;1.52;;;;;;;20.67;58.54;99409.22;5038731;28;20063;-53
2023/07/30 07:27:58;;;;;;;2.97;1.08;;;;;;;20.93;57.53;99414.84;5041752;28;20045;-53
2023/07/30 07:30:25;;;;;;;2.13;0.95;;;;;;;21.13;57.83;99417.28;5037040;28;20057;-54
2023/07/30 07:32:53;;;;;;;2.55;1.45;;;;;;;21.27;56.58;99416.47;5045567;28;20048;-54
2023/07/30 07:35:20;;;;;;;2.63;1.38;;;;;;;21.29;56.25;99414.63;5040152;28;20049;-55
2023/07/30 07:37:47;;;;;;;3.58;1.27;;;;;;;21.47;56.34;99417.97;5041193;28;20041;-55
2023/07/30 07:40:14;;;;;;;5.63;2.30;;;;;;;21.69;55.55;99419.34;5047300;28;20500;-57
2023/07/30 07:42:43;;;;;;;2.00;1.42;;;;;;;21.87;55.01;99424.47;5043149;28;20614;-54
2023/07/30 07:45:12;;;;;;;3.42;1.52;;;;;;;22.00;54.46;99420.16;5043632;28;20045;-53
2023/07/30 07:47:39;;;;;;;3.05;1.52;;;;;;;22.15;54.81;99430.72;5048505;28;20048;-54
2023/07/30 07:50:06;;;;;;;6.25;1.67;;;;;;;22.27;54.17;99422.06;5042019;28;20692;-55
2023/07/30 07:52:33;;;;;;;1.98;1.75;;;;;;;22.47;53.75;99427.88;5038056;28;20049;-56
2023/07/30 07:54:59;;;;;;;3.05;1.58;;;;;;;22.72;53.65;99426.34;5032119;28;20057;-52
2023/07/30 07:57:26;;;;;;;2.20;1.05;;;;;;;22.83;52.40;99434.41;5037119;28;20060;-52
2023/07/30 07:59:55;;;;;;;2.28;1.55;;;;;;;22.88;52.43;99442.06;5037725;28;20562;-56
2023/07/30 08:02:24;;;;;;;2.05;1.33;;;;;;;23.01;52.24;99435.97;5040663;28;20041;-56
2023/07/30 08:04:51;;;;;;;3.28;1.45;;;;;;;23.07;51.20;99441.69;5034710;28;20626;-51
2023/07/30 08:07:18;;;;;;;2.28;1.95;;;;;;;22.96;51.48;99449.47;5034608;28;20095;-57
2023/07/30 08:09:46;;;;;;;2.75;1.42;;;;;;;23.00;51.43;99439.56;5033381;28;20058;-55
2023/07/30 08:12:15;;;;;;;;;;;;;;;22.96;49.50;99452.09;5039371;28;20045;-51
2023/07/30 08:14:43;;;;;;;5.78;1.60;;;;;;;23.06;51.01;99447.94;5038105;28;20012;-57
2023/07/30 08:17:12;;;;;;;2.60;0.38;;;;;;;23.07;50.67;99454.91;5036892;28;20616;-54
2023/07/30 08:19:38;;;;;;;3.97;1.63;;;;;;;23.27;50.88;99452.75;5035459;28;20042;-55
2023/07/30 08:22:05;;;;;;;2.88;1.48;;;;;;;23.52;50.42;99450.31;5035673;28;20056;-55
2023/07/30 08:24:33;;;;;;;5.45;1.88;;;;;;;23.64;49.66;99453.94;5041385;28;20106;-57
2023/07/30 08:27:00;;;;;;;4.03;0.90;;;;;;;23.73;49.81;99448.03;5027349;28;20563;-55
2023/07/30 08:29:26;;;;;;;2.88;1.75;;;;;;;23.64;49.75;99444.19;5033217;28;20524;-55
2023/07/30 08:31:53;;;;;;;1.65;1.48;;;;;;;23.78;49.50;99439.78;5033332;28;20110;-53
2023/07/30 08:34:22;;;;;;;2.22;1.88;;;;;;;23.89;49.58;99450.50;5038116;28;20077;-56
2023/07/30 08:36:49;;;;;;;4.10;1.35;;;;;;;23.77;49.20;99449.50;5035251;28;20041;-55
2023/07/30 08:39:15;;;;;;;2.38;1.58;;;;;;;23.59;48.72;99447.19;5035574;28;20064;-52
2023/07/30 08:41:42;;;;;;;1.77;1.60;;;;;;;23.36;49.06;99446.91;5033799;28;20180;-55
2023/07/30 08:44:09;;;;;;;2.60;1.70;;;;;;;23.22;49.46;99446.94;5035633;28;20540;-55
2023/07/30 08:46:36;;;;;;;3.35;1.77;;;;;;;23.38;49.31;99443.31;5034538;28;20052;-56
2023/07/30 08:49:05;;;;;;;1.90;1.77;;;;;;;23.55;48.96;99450.97;5037469;28;20053;-54
2023/07/30 08:51:37;;;;;;;1.63;1.52;;;;;;;23.65;48.87;99453.00;5036708;28;20076;-56
2023/07/30 08:54:06;;;;;;;2.05;1.63;;;;;;;23.82;48.86;99455.34;5038199;28;20052;-53
2023/07/30 08:56:33;;;;;;;2.47;0.47;;;;;;;24.05;48.28;99446.78;5036117;28;20398;-54
2023/07/30 08:59:02;;;;;;;2.63;1.75;;;;;;;24.36;47.82;99449.97;5033525;28;20047;-54
2023/07/30 09:01:37;;;;;;;4.65;1.35;;;;;;;24.31;47.42;99452.09;5035805;28;20053;-51
2023/07/30 09:04:06;;;;;;;2.15;1.70;;;;;;;24.13;47.31;99457.72;5037217;28;20048;-56
2023/07/30 09:06:32;;;;;;;3.40;1.48;;;;;;;23.86;46.96;99456.84;5046592;28;20045;-56
2023/07/30 09:08:59;;;;;;;2.83;1.73;;;;;;;23.66;47.11;99467.91;5037198;28;20045;-55
2023/07/30 09:11:27;;;;;;;5.90;1.08;;;;;;;23.51;46.99;99462.72;5044365;28;20044;-52
2023/07/30 09:13:55;;;;;;;1.38;1.00;;;;;;;23.39;47.44;99460.84;5040504;28;20049;-56
2023/07/30 09:16:26;;;;;;;1.95;0.30;;;;;;;23.30;47.87;99463.13;5039304;28;20573;-55
2023/07/30 09:18:54;;;;;;;1.67;1.48;;;;;;;23.23;48.39;99469.75;5035601;28;20050;-53
2023/07/30 09:21:29;;;;;;;2.88;1.75;;;;;;;23.08;47.08;99464.53;5044743;28;20067;-53
2023/07/30 09:23:57;;;;;;;2.08;1.75;;;;;;;23.04;48.36;99468.34;5041147;28;20163;-57
2023/07/30 09:26:24;;;;;;;3.78;1.55;;;;;;;22.96;48.14;99470.59;5035963;28;20135;-56
2023/07/30 09:28:51;;;;;;;4.30;1.98;;;;;;;22.92;48.04;99462.03;5039814;28;20161;-55
2023/07/30 09:31:18;;;;;;;1.65;1.50;;;;;;;22.89;47.89;99467.50;5041974;28;20049;-53
2023/07/30 09:33:48;;;;;;;2.88;2.15;;;;;;;22.96;48.03;99470.59;5032111;28;20484;-55
2023/07/30 09:36:18;;;;;;;2.97;1.27;;;;;;;23.01;47.68;99470.31;5037820;28;20051;-55
2023/07/30 09:38:46;;;;;;;3.70;1.98;;;;;;;23.02;48.14;99467.56;5024474;28;20048;-54
2023/07/30 09:41:14;;;;;;;2.28;1.63;;;;;;;23.06;48.33;99461.13;5022087;28;20049;-54
2023/07/30 09:43:41;;;;;;;3.60;2.20;;;;;;;23.07;47.82;99476.03;5037879;28;20061;-53
2023/07/30 09:46:09;;;;;;;1.98;1.42;;;;;;;23.03;47.99;99471.91;5041228;28;20049;-56
2023/07/30 09:48:36;;;;;;;2.60;2.05;;;;;;;23.03;48.29;99474.53;5041127;28;20053;-55
2023/07/30 09:51:03;;;;;;;4.45;1.70;;;;;;;22.94;47.97;99483.06;5038367;28;20051;-57
2023/07/30 09:53:34;;;;;;;1.70;1.13;;;;;;;22.85;48.05;99485.34;5037348;28;20758;-59
2023/07/30 09:56:04;;;;;;;3.00;1.77;;;;;;;22.94;47.98;99488.34;5034421;28;20589;-55
2023/07/30 09:58:31;;;;;;;5.82;0.88;;;;;;;23.07;47.64;99478.69;5042336;28;20424;-53
2023/07/30 10:00:59;;;;;;;5.28;1.77;;;;;;;23.24;48.11;99479.41;5037239;28;20052;-56
2023/07/30 10:03:28;;;;;;;1.77;1.67;;;;;;;23.47;48.98;99485.84;5041785;28;20052;-54
2023/07/30 10:06:02;;;;;;;1.98;0.75;;;;;;;23.61;47.67;99490.19;5040861;28;20253;-53
2023/07/30 10:08:34;;;;;;;2.42;1.38;;;;;;;23.81;47.72;99464.22;5035883;28;20136;-56
2023/07/30 10:11:04;;;;;;;1.90;1.30;;;;;;;24.01;46.94;99485.81;5033164;28;20068;-55
2023/07/30 10:13:32;;;;;;;1.63;1.52;;;;;;;24.08;46.39;99495.03;5041784;28;20061;-58
2023/07/30 10:15:59;;;;;;;2.58;1.10;;;;;;;24.05;45.79;99497.91;5039393;28;20047;-54
2023/07/30 10:18:39;;;;;;;1.58;1.23;;;;;;;23.96;45.56;99490.56;5038780;28;20045;-52
2023/07/30 10:21:09;;;;;;;2.92;1.25;;;;;;;23.84;45.34;99493.09;5043623;28;20131;-55
2023/07/30 10:23:45;;;;;;;;;;;;;;;23.60;45.48;99491.16;5026052;28;20049;-55
2023/07/30 10:26:12;;;;;;;2.47;1.58;;;;;;;23.72;45.85;99494.78;5037986;28;20096;-56
2023/07/30 10:28:43;;;;;;;1.55;1.45;;;;;;;23.77;46.41;99491.00;5042835;28;20047;-56
2023/07/30 10:31:13;;;;;;;3.08;2.80;;;;;;;23.79;45.57;99492.56;5039052;28;20057;-54
2023/07/30 10:33:55;;;;;;;1.38;1.27;;;;;;;23.79;45.96;99484.63;5041857;28;20147;-49
2023/07/30 10:39:21;;;;;;;2.67;1.65;;;;;;;23.97;43.65;99486.97;5039418;27;20771;-52
2023/07/30 10:41:50;;;;;;;4.95;0.60;;;;;;;23.74;45.14;99492.00;5052320;28;20077;-54
2023/07/30 10:44:24;;;;;;;9.20;1.45;;;;;;;23.71;44.85;99484.31;5053520;28;20075;-56
2023/07/30 10:49:29;;;;;;;1.17;1.08;;;;;;;24.01;44.81;99480.53;5076619;27;20939;-55
2023/07/30 10:51:58;;;;;;;4.85;1.33;;;;;;;24.05;45.13;99482.03;5008104;28;20060;-56
2023/07/30 10:54:26;;;;;;;5.28;1.48;;;;;;;23.99;44.65;99488.59;5015212;28;20059;-55
2023/07/30 10:56:54;;;;;;;5.05;0.90;;;;;;;23.92;44.50;99486.44;5017084;28;20046;-56
2023/07/30 10:59:22;;;;;;;4.50;1.30;;;;;;;23.78;44.87;99487.38;5028226;28;20072;-56
2023/07/30 11:01:49;;;;;;;2.22;0.82;;;;;;;23.65;44.69;99485.56;5038388;28;20095;-57
2023/07/30 11:04:18;;;;;;;2.97;0.75;;;;;;;23.53;45.44;99489.88;5033900;28;20057;-56
2023/07/30 11:06:47;;;;;;;4.50;1.15;;;;;;;23.42;44.99;99487.09;5019715;28;20054;-56
2023/07/30 11:09:23;;;;;;;13.55;2.95;;;;;;;23.35;45.42;99482.22;5020750;28;20059;-56
2023/07/30 11:11:51;;;;;;;6.68;3.83;;;;;;;23.32;46.03;99485.03;5014167;28;21887;-56
2023/07/30 11:14:20;;;;;;;6.78;1.33;;;;;;;23.33;45.60;99489.34;5008891;28;20060;-54
2023/07/30 11:19:27;;;;;;;52.30;11.07;;;;;;;23.38;45.86;99493.53;5015159;28;20412;-56
2023/07/30 11:21:57;;;;;;;5.50;0.80;;;;;;;23.44;45.73;99490.47;4991913;28;20080;-58
2023/07/30 11:24:39;;;;;;;13.88;3.03;;;;;;;23.47;46.23;99496.41;4990534;28;20146;-54
2023/07/30 11:27:06;;;;;;;3.90;0.65;;;;;;;23.59;46.26;99494.75;4989788;28;20061;-57
2023/07/30 11:29:33;;;;;;;3.67;0.88;;;;;;;23.70;45.88;99507.25;4985604;28;20525;-57
2023/07/30 11:32:02;;;;;;;3.42;1.67;;;;;;;23.81;46.57;99493.31;4988916;28;20069;-55
2023/07/30 11:34:38;;;;;;;7.25;1.48;;;;;;;23.97;45.92;99487.81;4990411;28;20494;-56
2023/07/30 11:37:08;;;;;;;3.53;0.70;;;;;;;24.13;45.92;99486.81;4991395;28;20049;-54
2023/07/30 11:39:36;;;;;;;1.98;0.77;;;;;;;24.28;45.54;99499.94;4995046;28;20057;-55
2023/07/30 11:42:03;;;;;;;6.60;2.33;;;;;;;24.29;44.93;99494.53;4988759;28;20057;-52
2023/07/30 11:44:31;;;;;;;3.70;0.90;;;;;;;24.25;45.18;99490.41;4989147;28;20137;-56